Time;durP1;ratioP1;P1;durP2;ratioP2;P2;SDS_P1;SDS_P2;PMS_P1;PMS_P2;Temp;Humidity;BMP_temperature;BMP_pressure;BME280_temperature;BME280_humidity;BME280_pressure;Samples;Min_cycle;Max_cycle;Signal;HPM_P1;HPM_P2
2021/07/12 00:02:38;;;;;;;12.37;11.57;;;21.00;99.90;;;;;;5000470;28;20407;-93
2021/07/12 00:05:16;;;;;;;10.63;10.13;;;18.40;96.70;;;;;;5001429;28;20408;-93
2021/07/12 00:08:35;;;;;;;11.53;10.93;;;20.10;99.10;;;;;;5018200;28;20439;-92
2021/07/12 00:11:31;;;;;;;11.33;10.60;;;21.30;98.20;;;;;;5015789;28;20979;-91
2021/07/12 00:13:59;;;;;;;12.47;11.40;;;18.80;96.60;;;;;;5000951;28;20496;-91
2021/07/12 00:16:43;;;;;;;10.97;10.13;;;20.30;99.90;;;;;;5015984;28;20427;-93
2021/07/12 00:19:23;;;;;;;11.87;10.90;;;21.90;99.90;;;;;;4967239;28;20425;-92
2021/07/12 00:22:08;;;;;;;11.73;11.00;;;20.20;96.50;;;;;;5016855;28;20472;-91
2021/07/12 00:25:04;;;;;;;11.43;10.60;;;21.90;99.40;;;;;;5016819;28;20420;-92
2021/07/12 00:27:39;;;;;;;9.83;9.27;;;21.40;97.80;;;;;;5014602;28;20427;-93
2021/07/12 00:30:29;;;;;;;10.93;10.33;;;19.10;97.90;;;;;;4998400;28;20421;-91
2021/07/12 00:33:00;;;;;;;12.00;11.10;;;21.40;97.70;;;;;;5001186;28;20408;-92
2021/07/12 00:35:33;;;;;;;11.77;11.00;;;19.30;99.90;;;;;;4997856;28;20794;-92
2021/07/12 00:37:59;;;;;;;11.33;10.63;;;18.00;95.60;;;;;;5011719;28;20500;-91
2021/07/12 00:40:55;;;;;;;13.83;12.53;;;15.90;98.10;;;;;;4996918;28;20427;-92
2021/07/12 00:43:27;;;;;;;11.60;11.00;;;19.30;95.20;;;;;;4995233;28;20425;-92
2021/07/12 00:46:00;;;;;;;11.53;10.80;;;21.10;95.60;;;;;;4995250;28;20412;-93
2021/07/12 00:48:38;;;;;;;12.20;11.30;;;19.20;97.70;;;;;;4995431;28;20429;-93
2021/07/12 00:54:40;;;;;;;11.13;10.43;;;20.70;97.10;;;;;;4986511;28;20532;-92
2021/07/12 00:57:22;;;;;;;11.63;10.80;;;17.70;95.90;;;;;;4993456;28;20771;-91
2021/07/12 00:59:52;;;;;;;13.13;12.13;;;20.60;97.60;;;;;;4988902;28;20414;-92
2021/07/12 01:02:23;;;;;;;13.17;12.10;;;21.30;99.90;;;;;;4975428;28;20422;-92
2021/07/12 01:04:56;;;;;;;13.47;12.17;;;18.00;99.00;;;;;;4978488;28;20427;-92
2021/07/12 01:07:34;;;;;;;14.77;13.67;;;20.60;97.50;;;;;;4986818;28;20436;-91
2021/07/12 01:10:32;;;;;;;14.20;13.10;;;20.50;97.40;;;;;;5017486;28;20404;-92
2021/07/12 01:13:41;;;;;;;12.50;11.57;;;20.40;97.70;;;;;;4979044;28;20413;-92
2021/07/12 01:16:56;;;;;;;14.00;12.70;;;19.10;97.40;;;;;;4999422;28;20448;-92
2021/07/12 01:20:39;;;;;;;13.17;12.30;;;20.30;98.90;;;;;;4957704;28;20422;-92
2021/07/12 01:23:55;;;;;;;14.13;12.57;;;20.30;99.10;;;;;;4902688;29;20434;-92
2021/07/12 01:27:32;;;;;;;14.20;13.10;;;20.30;99.20;;;;;;4918713;29;20421;-92
2021/07/12 01:30:13;;;;;;;14.00;12.80;;;18.00;97.80;;;;;;4937658;28;20423;-92
2021/07/12 01:33:17;;;;;;;14.47;13.47;;;18.00;99.00;;;;;;4997658;28;20449;-91
2021/07/12 01:36:13;;;;;;;13.23;12.20;;;18.40;98.30;;;;;;4973610;28;20463;-92
2021/07/12 01:39:07;;;;;;;13.13;12.20;;;17.40;97.50;;;;;;4999062;28;20432;-92
2021/07/12 01:42:00;;;;;;;13.23;12.43;;;18.40;97.70;;;;;;5001011;28;20421;-91
2021/07/12 01:45:08;;;;;;;11.80;11.10;;;20.50;99.10;;;;;;5003990;28;20420;-93
2021/07/12 01:48:13;;;;;;;15.17;13.87;;;14.40;95.30;;;;;;5005584;28;20480;-92
2021/07/12 01:51:12;;;;;;;14.20;13.20;;;16.30;96.80;;;;;;4972637;28;20475;-89
2021/07/12 01:54:21;;;;;;;14.07;13.20;;;18.10;98.00;;;;;;5021456;28;20511;-92
2021/07/12 01:57:20;;;;;;;13.00;11.90;;;17.60;99.40;;;;;;5022138;28;20455;-91
2021/07/12 02:00:13;;;;;;;12.60;11.60;;;17.60;97.20;;;;;;5018832;28;20448;-92
2021/07/12 02:02:59;;;;;;;14.40;13.47;;;18.20;99.80;;;;;;5019650;28;20404;-91
2021/07/12 02:06:01;;;;;;;13.70;12.90;;;20.90;99.90;;;;;;5016569;28;20454;-92
2021/07/12 02:09:06;;;;;;;13.73;12.50;;;17.60;97.90;;;;;;5003406;28;20423;-92
2021/07/12 02:11:50;;;;;;;13.83;12.83;;;20.30;99.60;;;;;;5001860;28;20479;-91
2021/07/12 02:14:22;;;;;;;13.53;12.43;;;19.80;99.30;;;;;;4998558;28;20493;-91
2021/07/12 02:16:54;;;;;;;13.37;12.47;;;19.60;99.90;;;;;;5001964;28;20446;-91
2021/07/12 02:19:57;;;;;;;15.00;13.80;;;17.00;99.50;;;;;;5018036;28;20444;-91
2021/07/12 02:22:42;;;;;;;13.33;12.43;;;20.60;99.90;;;;;;5013994;28;20420;-90
2021/07/12 02:25:47;;;;;;;13.17;12.37;;;18.60;99.90;;;;;;5019065;28;20461;-90
2021/07/12 02:28:17;;;;;;;14.43;13.53;;;20.10;99.90;;;;;;4997815;28;20471;-91
2021/07/12 02:30:47;;;;;;;15.90;14.80;;;18.10;99.90;;;;;;4995907;28;20460;-90
2021/07/12 02:33:15;;;;;;;16.27;14.80;;;15.10;97.30;;;;;;4998273;28;20434;-91
2021/07/12 02:35:54;;;;;;;17.37;16.07;;;19.50;99.90;;;;;;4998621;28;20461;-90
2021/07/12 02:38:28;;;;;;;16.90;15.60;;;20.00;99.90;;;;;;4982167;28;20425;-90
2021/07/12 02:40:57;;;;;;;16.27;14.67;;;19.80;99.90;;;;;;4980673;28;20420;-90
2021/07/12 02:43:30;;;;;;;18.33;16.57;;;17.10;99.10;;;;;;4980712;28;20436;-91
2021/07/12 02:46:01;;;;;;;19.40;17.60;;;16.90;99.00;;;;;;4967446;28;20427;-91
2021/07/12 02:48:42;;;;;;;18.37;16.97;;;18.80;99.90;;;;;;4995892;28;20425;-91
2021/07/12 02:51:17;;;;;;;17.70;16.40;;;15.30;99.90;;;;;;4995583;28;20461;-91
2021/07/12 02:53:50;;;;;;;16.50;15.30;;;16.70;99.50;;;;;;4994634;28;20473;-92
2021/07/12 02:56:35;;;;;;;16.13;14.90;;;21.50;99.90;;;;;;4996756;28;20417;-92
2021/07/12 02:59:04;;;;;;;16.27;15.03;;;17.90;99.90;;;;;;4981406;28;20417;-92
2021/07/12 03:01:48;;;;;;;15.53;14.43;;;21.00;99.90;;;;;;4996936;28;20422;-92
2021/07/12 03:04:25;;;;;;;14.50;13.30;;;15.90;97.70;;;;;;4996899;28;20421;-92
2021/07/12 03:07:04;;;;;;;15.67;14.57;;;21.70;99.90;;;;;;4997755;28;20391;-92
2021/07/12 03:09:50;;;;;;;15.17;14.07;;;15.50;97.80;;;;;;4998739;28;20417;-92
2021/07/12 03:12:55;;;;;;;14.77;13.67;;;19.70;99.40;;;;;;4999081;28;20492;-91
2021/07/12 03:15:52;;;;;;;13.50;12.60;;;19.00;98.40;;;;;;4998579;28;20413;-92
2021/07/12 03:18:31;;;;;;;13.93;12.90;;;17.50;99.90;;;;;;5004643;28;20420;-91
2021/07/12 03:21:07;;;;;;;15.10;14.00;;;20.00;98.00;;;;;;5014978;28;20428;-92
2021/07/12 03:23:41;;;;;;;15.70;14.30;;;18.00;98.70;;;;;;4983030;28;20427;-91
2021/07/12 03:26:19;;;;;;;17.10;14.03;;;17.70;98.10;;;;;;5015540;28;20414;-91
2021/07/12 03:28:55;;;;;;;16.27;15.17;;;17.60;96.50;;;;;;5016104;28;20460;-92
2021/07/12 03:31:29;;;;;;;15.00;14.00;;;17.10;98.10;;;;;;4994195;28;20519;-92
2021/07/12 03:33:59;;;;;;;17.40;15.90;;;18.00;97.20;;;;;;5016340;28;20495;-91
2021/07/12 03:36:31;;;;;;;16.23;15.03;;;17.80;99.20;;;;;;5016565;28;20425;-92
2021/07/12 03:39:05;;;;;;;15.70;14.73;;;19.60;98.90;;;;;;4999368;28;20428;-91
2021/07/12 03:41:35;;;;;;;19.47;17.73;;;17.00;97.10;;;;;;5001443;28;20444;-91
2021/07/12 03:44:04;;;;;;;14.90;13.77;;;19.60;99.90;;;;;;5000353;28;20416;-90
2021/07/12 03:46:33;;;;;;;16.77;15.30;;;20.30;99.90;;;;;;4997898;28;20421;-90
2021/07/12 03:49:10;;;;;;;15.87;14.87;;;18.60;98.40;;;;;;4995392;28;20524;-92
2021/07/12 03:52:01;;;;;;;14.93;13.70;;;19.70;99.30;;;;;;5003996;28;20518;-91
2021/07/12 03:54:32;;;;;;;15.63;14.53;;;17.30;98.10;;;;;;4998446;28;20462;-92
2021/07/12 03:57:56;;;;;;;15.17;13.83;;;21.00;99.90;;;;;;4999436;28;20476;-93
2021/07/12 04:00:27;;;;;;;16.73;15.27;;;19.90;99.90;;;;;;4998775;28;20457;-92
2021/07/12 04:03:00;;;;;;;16.00;14.77;;;15.70;98.10;;;;;;5015490;28;20420;-91
2021/07/12 04:05:45;;;;;;;15.07;14.00;;;17.40;99.90;;;;;;5014773;28;20418;-92
2021/07/12 04:08:12;;;;;;;15.93;14.40;;;15.30;97.60;;;;;;4997960;28;20435;-91
2021/07/12 04:10:44;;;;;;;15.67;14.47;;;15.30;98.80;;;;;;4996786;28;20468;-91
2021/07/12 04:13:13;;;;;;;18.17;16.00;;;17.10;98.30;;;;;;5016264;28;20487;-91
2021/07/12 04:15:46;;;;;;;16.90;15.50;;;16.10;99.90;;;;;;5013623;28;20421;-91
2021/07/12 04:18:16;;;;;;;19.70;18.10;;;19.90;99.30;;;;;;5013295;28;20409;-92
2021/07/12 04:20:43;;;;;;;17.53;16.17;;;20.30;99.90;;;;;;4997005;28;20441;-92
2021/07/12 04:23:10;;;;;;;19.60;16.53;;;19.10;97.60;;;;;;4997590;28;20429;-90
2021/07/12 04:25:51;;;;;;;20.17;18.40;;;21.00;99.90;;;;;;5012779;28;20420;-91
2021/07/12 04:28:17;;;;;;;18.10;16.60;;;16.80;96.90;;;;;;5010886;28;20428;-90
2021/07/12 04:30:48;;;;;;;20.00;18.27;;;17.80;99.90;;;;;;4996149;28;20454;-92
2021/07/12 04:33:15;;;;;;;16.90;15.20;;;16.90;97.50;;;;;;5014499;28;20440;-93
2021/07/12 04:35:44;;;;;;;16.50;15.27;;;22.60;99.90;;;;;;4994863;28;20409;-92
2021/07/12 04:38:16;;;;;;;14.43;13.53;;;20.50;99.90;;;;;;4998189;28;20412;-93
2021/07/12 04:41:00;;;;;;;15.73;14.43;;;20.30;98.90;;;;;;4995139;28;20427;-92
2021/07/12 04:43:31;;;;;;;13.53;12.43;;;17.40;97.00;;;;;;5013223;28;20413;-92
2021/07/12 04:46:00;;;;;;;15.83;13.63;;;20.50;99.90;;;;;;4996495;28;20416;-91
2021/07/12 04:48:27;;;;;;;13.63;12.67;;;18.40;99.50;;;;;;5015449;28;20416;-92
2021/07/12 04:51:15;;;;;;;14.43;13.37;;;18.60;97.50;;;;;;4994580;28;20456;-91
2021/07/12 04:53:42;;;;;;;14.37;13.20;;;16.70;98.60;;;;;;4997255;28;20432;-93
2021/07/12 04:56:47;;;;;;;13.47;12.43;;;20.70;99.50;;;;;;5009558;28;20995;-92
2021/07/12 04:59:16;;;;;;;14.40;13.20;;;20.30;99.90;;;;;;4998536;28;20444;-91
2021/07/12 05:01:54;;;;;;;12.83;12.00;;;18.70;97.80;;;;;;5016496;28;20424;-92
2021/07/12 05:04:29;;;;;;;15.47;14.30;;;16.10;92.90;;;;;;5010171;28;20531;-92
2021/07/12 05:06:56;;;;;;;13.17;12.27;;;21.10;96.00;;;;;;5014722;28;20420;-92
2021/07/12 05:09:32;;;;;;;14.93;13.90;;;21.40;98.20;;;;;;5013620;28;20408;-92
2021/07/12 05:11:58;;;;;;;13.33;12.40;;;16.60;95.60;;;;;;5012403;28;20471;-92
2021/07/12 05:14:26;;;;;;;13.60;12.50;;;18.90;97.10;;;;;;4994928;28;20448;-90
2021/07/12 05:16:52;;;;;;;13.90;12.80;;;21.90;95.30;;;;;;5010406;28;20413;-92
2021/07/12 05:19:47;;;;;;;13.50;12.30;;;18.70;93.30;;;;;;4995512;28;20452;-92
2021/07/12 05:22:22;;;;;;;13.87;12.63;;;18.70;97.20;;;;;;5006037;28;20420;-91
2021/07/12 05:24:48;;;;;;;13.20;12.30;;;19.30;98.40;;;;;;4994974;28;20433;-92
2021/07/12 05:27:32;;;;;;;12.47;11.53;;;20.90;94.80;;;;;;4997929;28;20500;-93
2021/07/12 05:30:01;;;;;;;13.40;12.40;;;20.20;94.50;;;;;;4998953;28;20452;-91
2021/07/12 05:32:27;;;;;;;12.97;12.07;;;24.80;96.60;;;;;;4993276;28;20483;-92
2021/07/12 05:35:04;;;;;;;14.03;13.00;;;19.50;94.30;;;;;;4993791;28;20420;-91
2021/07/12 05:37:37;;;;;;;17.17;13.10;;;22.20;93.10;;;;;;4992989;28;20173;-92
2021/07/12 05:40:33;;;;;;;13.30;12.40;;;19.70;92.50;;;;;;4990901;28;20412;-91
2021/07/12 05:43:01;;;;;;;13.23;12.27;;;24.10;93.60;;;;;;4991964;28;20507;-90
2021/07/12 05:45:29;;;;;;;13.47;12.27;;;19.70;93.50;;;;;;4993901;28;20428;-90
2021/07/12 05:47:58;;;;;;;14.17;13.20;;;20.80;90.10;;;;;;4990463;28;20523;-91
2021/07/12 05:50:24;;;;;;;14.20;13.20;;;22.10;92.80;;;;;;5009077;28;20415;-93
2021/07/12 05:53:02;;;;;;;15.67;14.57;;;21.70;90.00;;;;;;4992850;28;20511;-92
2021/07/12 05:55:43;;;;;;;12.80;12.10;;;22.80;88.90;;;;;;4991390;28;20206;-94
2021/07/12 05:58:15;;;;;;;14.33;13.30;;;23.30;90.40;;;;;;4992968;28;20471;-93
2021/07/12 06:00:44;;;;;;;14.57;13.10;;;22.00;82.30;;;;;;5010740;28;20423;-93
2021/07/12 06:03:29;;;;;;;13.77;12.87;;;21.80;86.40;;;;;;4995610;28;20424;-93
2021/07/12 06:05:58;;;;;;;13.93;12.83;;;21.70;77.60;;;;;;4994361;28;20275;-92
2021/07/12 06:08:24;;;;;;;13.77;12.90;;;21.30;77.90;;;;;;4977742;28;20424;-92
2021/07/12 06:10:55;;;;;;;13.03;12.23;;;21.70;72.10;;;;;;4993323;28;20470;-94
2021/07/12 06:13:23;;;;;;;14.30;13.30;;;24.70;76.70;;;;;;4991595;28;20161;-94
2021/07/12 06:15:52;;;;;;;13.43;12.53;;;22.50;74.30;;;;;;4986538;28;20943;-90
2021/07/12 06:18:26;;;;;;;14.83;13.40;;;23.10;72.40;;;;;;5005077;28;20425;-93
2021/07/12 06:20:52;;;;;;;13.50;12.70;;;25.20;70.50;;;;;;4986684;28;20462;-94
2021/07/12 06:23:18;;;;;;;13.23;12.40;;;23.90;72.10;;;;;;4984894;28;20850;-92
2021/07/12 06:25:51;;;;;;;14.77;13.27;;;22.80;67.50;;;;;;4973524;28;20424;-93
2021/07/12 06:28:20;;;;;;;14.33;13.33;;;25.40;66.60;;;;;;4988250;28;20173;-92
2021/07/12 06:30:46;;;;;;;12.77;11.73;;;25.60;67.50;;;;;;4991203;28;20487;-91
2021/07/12 06:33:12;;;;;;;12.40;11.70;;;25.50;65.00;;;;;;5004820;28;20436;-93
2021/07/12 06:35:38;;;;;;;13.40;12.50;;;25.80;69.20;;;;;;4989176;28;20173;-93
2021/07/12 06:38:04;;;;;;;13.20;12.20;;;25.50;67.20;;;;;;4990142;28;20233;-91
2021/07/12 06:40:30;;;;;;;12.60;11.40;;;25.20;64.70;;;;;;5006605;28;20423;-94
2021/07/12 06:42:55;;;;;;;12.60;11.40;;;25.60;64.80;;;;;;4987695;28;20452;-94
2021/07/12 06:45:24;;;;;;;13.23;12.20;;;26.10;64.00;;;;;;4985968;28;20543;-92
2021/07/12 06:47:50;;;;;;;12.57;11.37;;;24.20;59.40;;;;;;5002864;28;20172;-92
2021/07/12 06:50:16;;;;;;;12.60;11.67;;;24.80;59.70;;;;;;4981191;28;20511;-90
2021/07/12 06:52:42;;;;;;;10.93;10.33;;;25.20;59.00;;;;;;4979068;28;20421;-91
2021/07/12 06:55:08;;;;;;;10.87;10.13;;;25.60;57.00;;;;;;4994869;28;20182;-92
2021/07/12 06:57:36;;;;;;;11.80;10.80;;;25.60;56.20;;;;;;5000936;28;20516;-94
2021/07/12 07:00:07;;;;;;;14.20;11.77;;;28.40;56.50;;;;;;4990759;28;20459;-94
2021/07/12 07:02:35;;;;;;;10.47;9.77;;;28.10;55.80;;;;;;4992368;28;20524;-93
2021/07/12 07:05:03;;;;;;;11.23;10.57;;;26.60;56.30;;;;;;5010968;28;20904;-95
2021/07/12 07:07:29;;;;;;;11.57;10.97;;;26.40;54.70;;;;;;4992915;28;20451;-95
2021/07/12 07:09:55;;;;;;;10.23;9.50;;;27.10;55.70;;;;;;4991141;28;20784;-94
2021/07/12 07:12:20;;;;;;;10.00;9.40;;;27.90;55.30;;;;;;5004363;28;20228;-93
2021/07/12 07:14:48;;;;;;;10.53;9.73;;;26.90;52.40;;;;;;5007686;28;20184;-93
2021/07/12 07:17:13;;;;;;;10.47;9.80;;;27.60;51.90;;;;;;4993794;28;20456;-88
2021/07/12 07:19:39;;;;;;;8.90;8.40;;;28.10;51.30;;;;;;4992718;28;20560;-89
2021/07/12 07:22:05;;;;;;;7.43;7.13;;;28.50;49.40;;;;;;4980650;28;20174;-90
2021/07/12 07:24:30;;;;;;;7.13;6.80;;;28.70;48.20;;;;;;4999462;28;20200;-91
2021/07/12 07:26:56;;;;;;;6.80;6.37;;;29.00;47.00;;;;;;4998191;28;20174;-90
2021/07/12 07:29:22;;;;;;;7.37;6.90;;;29.40;46.30;;;;;;4980255;28;20177;-91
2021/07/12 07:31:49;;;;;;;6.00;5.80;;;;;;;;;;4998667;28;20209;-90
2021/07/12 07:34:15;;;;;;;5.40;5.30;;;30.70;50.20;;;;;;4980372;28;20177;-90
2021/07/12 07:36:41;;;;;;;5.87;5.67;;;30.90;48.60;;;;;;4979416;28;20420;-90
2021/07/12 07:39:07;;;;;;;5.90;5.70;;;31.10;48.10;;;;;;4980326;28;20412;-91
2021/07/12 07:41:36;;;;;;;5.13;5.03;;;33.20;47.60;;;;;;4980219;28;20434;-88
2021/07/12 07:44:04;;;;;;;4.70;4.70;;;31.80;53.50;;;;;;4981863;28;20424;-88
2021/07/12 07:46:32;;;;;;;4.70;4.60;;;32.30;41.80;;;;;;4999460;28;20427;-91
2021/07/12 07:49:00;;;;;;;4.50;4.50;;;32.40;41.60;;;;;;4981993;28;20423;-89
2021/07/12 07:51:26;;;;;;;5.13;5.07;;;32.70;41.60;;;;;;4981551;28;20499;-92
2021/07/12 07:53:54;;;;;;;4.60;4.60;;;34.20;39.50;;;;;;4982234;28;20433;-91
2021/07/12 07:56:20;;;;;;;5.30;5.20;;;36.40;40.40;;;;;;5001499;28;20178;-92
2021/07/12 07:58:46;;;;;;;4.80;4.70;;;35.80;39.30;;;;;;4984481;28;20449;-91
2021/07/12 08:01:12;;;;;;;4.80;4.70;;;35.20;38.40;;;;;;5000856;28;20431;-91
2021/07/12 08:03:37;;;;;;;5.20;5.07;;;35.00;37.20;;;;;;4984420;28;20272;-90
2021/07/12 08:06:03;;;;;;;4.07;4.07;;;34.30;38.30;;;;;;5002180;28;20179;-90
2021/07/12 08:08:30;;;;;;;4.57;4.47;;;33.90;39.60;;;;;;4981641;28;20170;-91
2021/07/12 08:10:56;;;;;;;4.37;4.27;;;33.00;35.90;;;;;;4983238;28;20243;-92
2021/07/12 08:13:22;;;;;;;4.70;4.63;;;33.40;40.40;;;;;;5000890;28;20421;-92
2021/07/12 08:15:50;;;;;;;5.53;5.33;;;33.40;39.50;;;;;;5000447;28;20327;-89
2021/07/12 08:18:18;;;;;;;4.27;4.23;;;33.30;39.00;;;;;;5002143;28;20253;-92
2021/07/12 08:20:47;;;;;;;5.07;4.97;;;34.10;40.70;;;;;;4986598;28;20417;-94
2021/07/12 08:23:13;;;;;;;4.53;4.40;;;33.00;38.40;;;;;;4986702;28;20413;-94
2021/07/12 08:25:39;;;;;;;4.57;4.47;;;34.30;40.50;;;;;;4983561;28;20427;-94
2021/07/12 08:28:05;;;;;;;4.33;4.23;;;33.70;39.20;;;;;;4986619;28;20413;-92
2021/07/12 08:30:34;;;;;;;4.83;4.73;;;33.40;40.80;;;;;;4987678;28;20165;-91
2021/07/12 08:32:59;;;;;;;4.80;4.70;;;33.00;38.90;;;;;;5003359;28;20507;-89
2021/07/12 08:35:25;;;;;;;4.40;4.40;;;34.40;40.40;;;;;;4987250;28;20495;-92
2021/07/12 08:37:51;;;;;;;5.03;4.83;;;33.70;36.70;;;;;;4986965;28;20188;-94
2021/07/12 08:40:19;;;;;;;4.57;4.47;;;33.70;37.10;;;;;;4985438;28;20173;-92
2021/07/12 08:42:45;;;;;;;5.43;5.40;;;33.60;36.70;;;;;;4986684;28;20209;-93
2021/07/12 08:45:11;;;;;;;4.70;4.63;;;34.10;39.70;;;;;;4986700;28;20412;-92
2021/07/12 08:47:37;;;;;;;5.20;5.00;;;33.00;37.60;;;;;;4988993;28;20420;-91
2021/07/12 08:50:04;;;;;;;5.10;4.90;;;34.30;38.00;;;;;;4988773;28;20412;-92
2021/07/12 08:52:30;;;;;;;5.60;5.50;;;32.50;45.20;;;;;;4987619;28;20494;-91
2021/07/12 08:55:08;;;;;;;4.91;4.71;;;32.40;47.10;;;;;;4652566;28;10002819;-92
2021/07/12 08:57:34;;;;;;;4.33;4.33;;;33.30;38.20;;;;;;5003594;28;20217;-93
2021/07/12 08:59:59;;;;;;;4.33;4.23;;;34.50;37.50;;;;;;5003137;28;20424;-93
2021/07/12 09:02:25;;;;;;;4.00;4.00;;;34.20;37.50;;;;;;4985194;28;20176;-92
2021/07/12 09:04:57;;;;;;;3.63;3.53;;;35.10;35.90;;;;;;4985991;28;20178;-90
2021/07/12 09:07:25;;;;;;;4.37;4.27;;;34.20;35.10;;;;;;4984583;28;20212;-92
2021/07/12 09:10:12;;;;;;;3.30;3.30;;;33.90;35.30;;;;;;4987229;28;20775;-95
2021/07/12 09:12:47;;;;;;;3.67;3.67;;;34.50;34.40;;;;;;5003138;28;20479;-91
2021/07/12 09:15:33;;;;;;;3.33;3.33;;;35.20;33.80;;;;;;4983943;28;20416;-94
2021/07/12 09:18:01;;;;;;;3.47;3.47;;;36.10;33.60;;;;;;4971847;28;20920;-91
2021/07/12 09:20:36;;;;;;;4.13;4.00;;;36.40;34.20;;;;;;4990087;28;20531;-92
2021/07/12 09:23:28;;;;;;;4.17;3.97;;;36.50;34.00;;;;;;5004187;28;20488;-91
2021/07/12 09:26:21;;;;;;;3.97;3.87;;;36.10;35.10;;;;;;4971372;28;20437;-90
2021/07/12 09:28:53;;;;;;;4.03;4.03;;;36.20;35.20;;;;;;4990338;28;20436;-90
2021/07/12 09:31:33;;;;;;;3.60;3.60;;;34.80;33.80;;;;;;4989771;28;20467;-91
2021/07/12 09:34:04;;;;;;;4.03;3.93;;;34.80;34.60;;;;;;4998230;28;20978;-91
2021/07/12 09:36:31;;;;;;;2.97;2.97;;;33.90;34.00;;;;;;4993704;28;20421;-91
2021/07/12 09:39:35;;;;;;;4.10;4.10;;;33.80;34.80;;;;;;4983116;28;20420;-93
2021/07/12 09:42:27;;;;;;;4.30;4.20;;;34.00;34.90;;;;;;4989213;28;20420;-91
2021/07/12 09:45:07;;;;;;;3.73;3.73;;;35.90;35.40;;;;;;4991757;28;20456;-92
2021/07/12 09:47:38;;;;;;;3.70;3.70;;;35.90;33.30;;;;;;5009252;28;20377;-90
2021/07/12 09:50:31;;;;;;;3.70;3.70;;;35.60;33.50;;;;;;4996707;28;20377;-90
2021/07/12 09:53:16;;;;;;;3.20;3.20;;;35.30;34.40;;;;;;4993093;28;20505;-95
2021/07/12 09:55:41;;;;;;;2.90;2.90;;;35.00;33.60;;;;;;5004797;28;20482;-92
2021/07/12 09:58:21;;;;;;;2.90;2.90;;;34.40;33.70;;;;;;4995757;28;20477;-90
2021/07/12 10:00:46;;;;;;;2.80;2.80;;;34.30;33.60;;;;;;4986585;28;20439;-91
2021/07/12 10:03:14;;;;;;;3.70;3.70;;;35.30;34.70;;;;;;4992830;28;20509;-94
2021/07/12 10:05:48;;;;;;;4.00;3.90;;;32.80;34.20;;;;;;4977022;28;20162;-91
2021/07/12 10:08:16;;;;;;;3.10;3.10;;;33.30;34.50;;;;;;4992101;28;20447;-95
2021/07/12 10:10:47;;;;;;;3.40;3.40;;;32.80;38.40;;;;;;4972751;28;21058;-93
2021/07/12 10:13:13;;;;;;;3.77;3.70;;;34.40;36.30;;;;;;5003415;28;20432;-92
2021/07/12 10:15:39;;;;;;;3.27;3.27;;;33.90;34.70;;;;;;5007388;28;20540;-94
2021/07/12 10:18:06;;;;;;;3.17;3.07;;;35.50;36.80;;;;;;5009410;28;20438;-95
2021/07/12 10:20:33;;;;;;;2.63;2.63;;;35.30;34.00;;;;;;4988670;28;20470;-91
2021/07/12 10:23:03;;;;;;;2.70;2.70;;;35.80;33.10;;;;;;4988096;28;20432;-92
2021/07/12 10:25:45;;;;;;;2.90;2.80;;;34.80;31.80;;;;;;4989793;28;20416;-93
2021/07/12 10:28:12;;;;;;;2.70;2.67;;;34.80;33.90;;;;;;5005698;28;20400;-93
2021/07/12 10:30:41;;;;;;;2.40;2.40;;;34.90;35.70;;;;;;4988228;28;20487;-92
2021/07/12 10:33:12;;;;;;;2.60;2.60;;;34.90;32.20;;;;;;5005645;28;20421;-91
2021/07/12 10:36:02;;;;;;;3.38;3.38;;;34.00;32.40;;;;;;4743916;28;10001049;-90
2021/07/12 10:38:48;;;;;;;3.40;3.40;;;34.20;34.50;;;;;;4985037;28;20374;-92
2021/07/12 10:41:26;;;;;;;3.43;3.40;;;34.70;34.70;;;;;;4967838;28;20429;-93
2021/07/12 10:44:00;;;;;;;3.23;3.03;;;33.90;34.70;;;;;;4989061;28;20441;-92
2021/07/12 10:46:34;;;;;;;2.87;2.77;;;35.70;34.70;;;;;;4983916;28;20516;-92
2021/07/12 10:49:25;;;;;;;2.73;2.73;;;34.10;33.60;;;;;;4969967;28;20421;-92
2021/07/12 10:51:55;;;;;;;3.33;3.33;;;34.20;32.80;;;;;;4987019;28;20475;-92
2021/07/12 10:54:24;;;;;;;3.07;2.87;;;35.70;31.90;;;;;;4990565;28;20481;-94
2021/07/12 10:57:22;;;;;;;3.40;3.30;;;36.40;33.50;;;;;;4978491;28;20471;-91
2021/07/12 11:00:06;;;;;;;2.77;2.73;;;36.50;34.10;;;;;;4993472;28;20436;-94
2021/07/12 11:02:40;;;;;;;3.40;3.40;;;34.90;34.20;;;;;;5008079;28;20436;-92
2021/07/12 11:05:15;;;;;;;4.13;3.83;;;34.90;36.20;;;;;;4989341;28;20504;-94
2021/07/12 11:07:57;;;;;;;3.20;3.00;;;32.50;34.80;;;;;;5008273;28;20402;-92
2021/07/12 11:10:27;;;;;;;3.10;3.10;;;35.80;37.60;;;;;;4991429;28;20416;-91
2021/07/12 11:13:05;;;;;;;3.00;3.00;;;34.30;34.70;;;;;;4993445;28;20432;-91
2021/07/12 11:15:45;;;;;;;3.70;3.70;;;33.80;34.10;;;;;;4989229;28;20424;-89
2021/07/12 11:18:35;;;;;;;3.50;3.40;;;34.00;34.70;;;;;;5004727;28;20416;-92
2021/07/12 11:21:06;;;;;;;2.80;2.80;;;34.90;34.80;;;;;;5008131;28;20916;-92
2021/07/12 11:23:46;;;;;;;2.80;2.80;;;35.40;34.30;;;;;;5005890;28;20421;-91
2021/07/12 11:26:30;;;;;;;2.80;2.80;;;33.90;33.80;;;;;;4989148;28;20441;-91
2021/07/12 11:28:58;;;;;;;2.80;2.80;;;33.10;35.30;;;;;;4990299;28;20934;-92
2021/07/12 11:31:56;;;;;;;3.03;2.83;;;33.60;35.00;;;;;;4990578;28;20464;-91
2021/07/12 11:34:53;;;;;;;3.93;3.73;;;34.00;32.70;;;;;;5007399;28;20944;-93
2021/07/12 11:37:25;;;;;;;4.47;4.37;;;33.60;33.90;;;;;;4991155;28;20765;-92
2021/07/12 11:39:54;;;;;;;3.43;3.43;;;34.70;36.20;;;;;;5007806;28;20409;-91
2021/07/12 11:42:39;;;;;;;3.00;3.00;;;34.90;37.10;;;;;;4992616;28;20412;-92
2021/07/12 11:45:19;;;;;;;2.87;2.80;;;32.40;35.50;;;;;;4994935;28;20428;-91
2021/07/12 11:47:53;;;;;;;4.00;4.00;;;31.90;36.00;;;;;;4991676;28;20408;-91
2021/07/12 11:50:24;;;;;;;3.10;3.10;;;31.60;34.80;;;;;;5006776;28;20459;-90
2021/07/12 11:52:59;;;;;;;3.10;3.10;;;31.80;34.30;;;;;;4988133;28;20524;-89
2021/07/12 11:55:26;;;;;;;3.07;2.97;;;32.10;34.80;;;;;;4988458;28;20404;-91
2021/07/12 11:57:57;;;;;;;2.63;2.63;;;32.10;35.70;;;;;;4989533;28;20464;-91
2021/07/12 12:00:25;;;;;;;3.47;3.37;;;32.60;35.90;;;;;;4991072;28;20408;-91
2021/07/12 12:02:58;;;;;;;3.17;3.17;;;31.90;36.00;;;;;;4988293;28;20421;-89
2021/07/12 12:05:28;;;;;;;3.10;2.80;;;30.90;36.70;;;;;;5002526;28;20409;-93
2021/07/12 12:07:57;;;;;;;2.80;2.80;;;31.10;36.90;;;;;;4986331;28;20420;-91
2021/07/12 12:10:29;;;;;;;3.77;3.60;;;31.30;36.90;;;;;;4988747;28;20432;-93
2021/07/12 12:13:11;;;;;;;3.57;3.40;;;33.20;38.80;;;;;;5001223;28;20450;-91
2021/07/12 12:15:42;;;;;;;3.20;3.17;;;31.70;37.30;;;;;;5004150;28;20404;-88
2021/07/12 12:18:27;;;;;;;3.63;3.47;;;30.20;39.80;;;;;;4984549;28;20421;-90
2021/07/12 12:20:59;;;;;;;3.20;3.10;;;29.90;39.40;;;;;;4991453;28;20437;-91
2021/07/12 12:23:42;;;;;;;3.43;3.40;;;30.10;39.40;;;;;;4988024;28;20428;-91
2021/07/12 12:26:13;;;;;;;3.53;3.37;;;30.40;39.20;;;;;;4974247;28;20578;-91
2021/07/12 12:29:00;;;;;;;3.30;3.30;;;30.80;38.70;;;;;;4987635;28;20424;-90
2021/07/12 12:31:32;;;;;;;3.30;3.30;;;31.10;38.10;;;;;;5004044;28;20471;-91
2021/07/12 12:34:18;;;;;;;;;;;;;;;;;;;;;
2021/07/12 12:36:44;;;;;;;2.90;2.90;;;32.20;38.80;;;;;;5012081;28;20443;-90
2021/07/12 12:39:18;;;;;;;2.83;2.83;;;31.80;37.40;;;;;;4994346;28;20416;-89
2021/07/12 12:41:52;;;;;;;2.73;2.63;;;31.90;36.60;;;;;;4993783;28;20465;-91
2021/07/12 12:44:41;;;;;;;2.90;2.90;;;31.60;36.60;;;;;;5007688;28;20489;-94
2021/07/12 12:47:07;;;;;;;3.33;3.13;;;32.50;37.50;;;;;;4972426;28;20432;-88
2021/07/12 12:49:41;;;;;;;3.23;3.23;;;31.30;36.30;;;;;;5005145;28;20405;-91
2021/07/12 12:52:18;;;;;;;3.10;2.90;;;30.90;36.60;;;;;;4990167;28;20204;-91
2021/07/12 12:54:46;;;;;;;2.70;2.70;;;31.30;36.60;;;;;;4986404;28;20404;-89
2021/07/12 12:57:12;;;;;;;3.40;3.40;;;31.30;36.90;;;;;;4984594;28;20491;-90
2021/07/12 12:59:42;;;;;;;3.23;3.23;;;31.20;37.70;;;;;;4292485;28;10000717;-91
2021/07/12 13:02:11;;;;;;;3.20;3.10;;;31.20;37.70;;;;;;4963859;28;20169;-91
2021/07/12 13:04:49;;;;;;;3.03;3.03;;;30.90;37.00;;;;;;4962770;28;20581;-89
2021/07/12 13:07:24;;;;;;;2.90;2.90;;;30.80;37.40;;;;;;4967312;28;20431;-89
2021/07/12 13:10:10;;;;;;;3.10;2.90;;;30.70;37.70;;;;;;4963902;28;20413;-89
2021/07/12 13:13:12;;;;;;;3.90;3.50;;;30.50;37.80;;;;;;4980068;28;20497;-90
2021/07/12 13:15:38;;;;;;;2.73;2.73;;;31.90;39.10;;;;;;4953648;28;20504;-90
2021/07/12 13:18:09;;;;;;;3.10;3.10;;;30.20;39.70;;;;;;4962198;28;20414;-92
2021/07/12 13:20:46;;;;;;;2.60;2.50;;;29.80;38.40;;;;;;4973214;28;20441;-89
2021/07/12 13:23:12;;;;;;;2.73;2.73;;;29.80;38.40;;;;;;4992850;28;20407;-91
2021/07/12 13:25:41;;;;;;;3.07;2.97;;;30.40;41.50;;;;;;4979662;28;20990;-91
2021/07/12 13:28:09;;;;;;;3.30;3.20;;;29.80;39.20;;;;;;4981265;28;20177;-91